Lombard, IL (60148)

5:39 PM CST on January 26, 2015 (GMT -0600)
Madison Meadows | Change Station
CLOSE
Current Station
Personal Weather Station
Location: Lombard, IL
Elevation: 715 ft
Nearby Weather Stations

Elev 715 ft 41.86 °N, 88.00 °W | Updated 14 minutes ago

Snow
Snow
25.2 °F
Feels Like 25 °F
N
2.2
Wind Variable Wind from South

Today
High -- | Low -- °F
--% Chance of Precip.
Yesterday
High -- | Low -- °F
Precip. -- in
7:10 AM 4:59 PM
Waxing Crescent, 48% visible
Pressure 29.88 in
Visibility 3.0 miles
Clouds Scattered Clouds 800 ft
Mostly Cloudy 1200 ft
Overcast 1700 ft
Windchill 25 °F
Dew Point 22 °F
Humidity 87%
Rainfall 0.00 in
Snow Depth Not available.
UV 0 out of 12
Pollen .10 out of 12
Air Quality Not available.
Flu Activity Not available.
SPECI KORD 262319Z 19005KT 3SM -SN BR SCT008 BKN012 OVC017 M04/M05 A2988 RMK AO2 P0000 T10391050

More Conditions Fewer Conditions

Pressure 29.88 in
Visibility 3.0 miles
Clouds Scattered Clouds 800 ft
Mostly Cloudy 1200 ft
Overcast 1700 ft
Windchill 25 °F
Dew Point 22 °F
Humidity 87%
Rainfall 0.00 in
Snow Depth Not available.
UV 0 out of 12
Pollen .10 out of 12
Air Quality Not available.
Flu Activity Not available.
SPECI KORD 262319Z 19005KT 3SM -SN BR SCT008 BKN012 OVC017 M04/M05 A2988 RMK AO2 P0000 T10391050

More Conditions Fewer Conditions

Nowcast | as of 3:41 PM CST on January 26, 2015

Generally light snow is expected until early evening...but a narrow band of snow over a portion of northeast and east central Illinois will produce moderate snow and result in visibility below 1 mile at times. Light accumulations up to about a half inch are possible in areas that receive moderate snowfall. Slippery conditions could develop on untreated surfaces. Motorists are advised to use extra caution.

×

10-Day Weather Forecast

Almanac

Astronomy

Jan. 26, 2015 Rise Set
Actual Time
Civil Twilight
Nautical Twilight
Astronomical Twilight
Moon
Length of Visible Light
Length of Day
Tomorrow will be .
, % of the Moon is Illuminated

Today's Extremes

State Highs State Lows

Community

WunderPhotos

Upload Photos

1,790,394 photos uploaded!

WunderBlogs® & News

Nearby

Air Quality

  Air Quality AQ Index Pollutant
Not available.

Snow Depth

Station Depth Elevation

Earthquake Activity

City Distance Mag. Time & Date
Minimum magnitude displayed is 2.5.

Coastal Water Temperatures

Place Temperature

Nearby Weather Stations